Time;durP1;ratioP1;P1;durP2;ratioP2;P2;SDS_P1;SDS_P2;PMS_P1;PMS_P2;Temp;Humidity;BMP_temperature;BMP_pressure;BME280_temperature;BME280_humidity;BME280_pressure;Samples;Min_cycle;Max_cycle;Signal;HPM_P1;HPM_P2
2022/12/26 00:01:41;;;;;;;49.63;24.25;;;12.30;99.90;;;;;;5029585;28;20017;-74
2022/12/26 00:04:06;;;;;;;46.45;24.00;;;12.30;99.90;;;;;;5021966;28;20493;-73
2022/12/26 00:06:33;;;;;;;36.28;19.83;;;12.30;99.90;;;;;;5028943;28;20021;-73
2022/12/26 00:09:01;;;;;;;45.65;21.58;;;12.30;99.90;;;;;;5023684;28;20029;-73
2022/12/26 00:11:27;;;;;;;52.10;25.92;;;12.30;99.90;;;;;;5030113;28;20132;-73
2022/12/26 00:14:10;;;;;;;42.42;23.33;;;12.30;99.90;;;;;;5031839;28;20105;-73
2022/12/26 00:16:36;;;;;;;42.72;20.92;;;12.30;99.90;;;;;;5030469;28;20032;-73
2022/12/26 00:19:02;;;;;;;39.28;20.17;;;12.30;99.90;;;;;;5013815;28;20032;-72
2022/12/26 00:21:28;;;;;;;47.28;24.00;;;12.30;99.90;;;;;;5001753;28;20026;-73
2022/12/26 00:23:58;;;;;;;38.22;20.63;;;12.30;99.90;;;;;;5024714;28;20355;-73
2022/12/26 00:26:26;;;;;;;45.42;20.80;;;12.30;99.90;;;;;;5025536;28;20091;-73
2022/12/26 00:28:53;;;;;;;38.08;18.38;;;12.20;99.90;;;;;;5020635;28;20032;-73
2022/12/26 00:31:25;;;;;;;36.38;18.48;;;12.10;99.90;;;;;;5024386;28;20045;-73
2022/12/26 00:33:51;;;;;;;36.70;18.05;;;12.00;99.90;;;;;;5026742;28;20021;-74
2022/12/26 00:36:20;;;;;;;38.55;18.35;;;12.00;99.90;;;;;;5021566;28;20276;-73
2022/12/26 00:38:47;;;;;;;26.90;15.13;;;12.00;99.90;;;;;;5026429;28;20356;-73
2022/12/26 00:41:14;;;;;;;26.27;14.60;;;12.00;99.90;;;;;;5025689;28;20025;-73
2022/12/26 00:43:39;;;;;;;24.73;14.88;;;12.00;99.90;;;;;;5026637;28;20590;-73
2022/12/26 00:46:05;;;;;;;27.65;15.27;;;12.00;99.90;;;;;;5028294;28;20029;-73
2022/12/26 00:48:31;;;;;;;23.60;14.48;;;12.00;99.90;;;;;;5026639;28;20026;-73
2022/12/26 00:50:57;;;;;;;26.23;15.45;;;12.00;99.90;;;;;;5024835;28;20108;-73
2022/12/26 00:53:24;;;;;;;29.65;14.45;;;12.00;99.90;;;;;;5023567;28;20091;-73
2022/12/26 00:55:50;;;;;;;23.70;14.23;;;12.00;99.90;;;;;;5026708;28;20037;-73
2022/12/26 00:58:16;;;;;;;22.55;12.40;;;11.90;99.90;;;;;;5026563;28;20075;-73
2022/12/26 01:00:42;;;;;;;20.17;11.45;;;12.00;99.90;;;;;;5026195;28;20429;-73
2022/12/26 01:03:09;;;;;;;22.48;10.70;;;11.90;99.90;;;;;;5025142;28;20033;-73
2022/12/26 01:05:34;;;;;;;17.77;9.63;;;11.80;99.90;;;;;;5021018;28;20041;-73
2022/12/26 01:08:00;;;;;;;14.13;9.27;;;11.90;99.90;;;;;;5026066;28;20024;-73
2022/12/26 01:10:27;;;;;;;18.33;9.45;;;11.90;99.90;;;;;;5021130;28;21044;-73
2022/12/26 01:12:52;;;;;;;16.75;9.95;;;11.80;99.90;;;;;;5024936;28;20029;-72
2022/12/26 01:15:20;;;;;;;17.15;9.63;;;11.80;99.90;;;;;;5025267;28;20033;-72
2022/12/26 01:17:45;;;;;;;15.55;8.30;;;11.80;99.90;;;;;;5023361;28;20034;-72
2022/12/26 01:20:11;;;;;;;17.40;10.57;;;11.80;99.90;;;;;;5028343;28;20026;-73
2022/12/26 01:22:37;;;;;;;15.68;10.13;;;11.80;99.90;;;;;;5025132;28;20022;-73
2022/12/26 01:25:03;;;;;;;19.83;11.98;;;11.80;99.90;;;;;;5028893;28;20029;-73
2022/12/26 01:27:28;;;;;;;16.60;9.88;;;11.80;99.90;;;;;;5029800;28;20382;-73
2022/12/26 01:29:55;;;;;;;16.45;10.38;;;11.80;99.90;;;;;;5027366;28;20040;-73
2022/12/26 01:32:21;;;;;;;19.13;10.40;;;11.90;99.90;;;;;;5030477;28;20045;-73
2022/12/26 01:34:46;;;;;;;19.17;10.70;;;11.80;99.90;;;;;;5025115;28;20034;-73
2022/12/26 01:37:13;;;;;;;20.10;10.80;;;11.80;99.90;;;;;;5030565;28;20036;-74
2022/12/26 01:39:39;;;;;;;22.75;10.95;;;11.80;99.90;;;;;;5025971;28;20040;-73
2022/12/26 01:42:13;;;;;;;21.75;11.45;;;11.90;99.90;;;;;;5028597;28;20025;-73
2022/12/26 01:45:03;;;;;;;16.38;10.27;;;11.90;99.90;;;;;;5025511;28;20041;-74
2022/12/26 01:47:40;;;;;;;18.40;11.25;;;11.80;99.90;;;;;;5026727;28;20025;-74
2022/12/26 01:50:17;;;;;;;19.10;11.48;;;11.90;99.90;;;;;;5025943;28;20029;-73
2022/12/26 01:52:46;;;;;;;18.17;10.80;;;11.90;99.90;;;;;;5027628;28;20025;-74
2022/12/26 01:55:14;;;;;;;16.90;10.88;;;11.90;99.90;;;;;;5030058;28;20458;-74
2022/12/26 01:57:44;;;;;;;17.90;11.57;;;11.80;99.90;;;;;;5029916;28;20034;-73
2022/12/26 02:00:12;;;;;;;19.40;10.80;;;11.80;99.90;;;;;;5023444;28;20032;-73
2022/12/26 02:05:34;;;;;;;17.20;10.48;;;11.60;99.90;;;;;;5025441;28;20035;-73
2022/12/26 02:08:10;;;;;;;16.98;11.35;;;11.60;99.90;;;;;;5029410;28;20021;-73
2022/12/26 02:11:17;;;;;;;15.43;11.00;;;11.70;99.90;;;;;;5028705;28;20037;-73
2022/12/26 02:13:43;;;;;;;17.27;10.90;;;11.70;99.90;;;;;;5028846;28;20124;-72
2022/12/26 02:16:12;;;;;;;15.25;9.65;;;11.70;99.90;;;;;;5024754;28;20118;-73
2022/12/26 02:18:38;;;;;;;18.20;10.38;;;11.70;99.90;;;;;;5057624;28;20017;-73
2022/12/26 02:21:16;;;;;;;16.60;10.70;;;11.70;99.90;;;;;;5025725;28;20022;-73
2022/12/26 02:24:25;;;;;;;17.17;10.30;;;11.70;99.90;;;;;;5028783;28;20033;-73
2022/12/26 02:27:04;;;;;;;20.08;11.55;;;11.70;99.90;;;;;;5026771;28;20014;-73
2022/12/26 02:29:48;;;;;;;18.48;11.10;;;11.80;99.90;;;;;;5029667;28;20366;-73
2022/12/26 02:32:35;;;;;;;19.13;10.63;;;11.80;99.90;;;;;;5024747;28;20033;-73
2022/12/26 02:35:20;;;;;;;15.88;9.73;;;11.80;99.90;;;;;;5027169;28;20025;-73
2022/12/26 02:38:17;;;;;;;17.60;10.65;;;11.80;99.90;;;;;;5051316;28;20485;-73
2022/12/26 02:40:59;;;;;;;18.25;10.82;;;11.80;99.90;;;;;;5025794;28;20025;-72
2022/12/26 02:43:53;;;;;;;15.57;9.90;;;11.70;99.90;;;;;;5023122;28;20139;-73
2022/12/26 02:47:02;;;;;;;16.90;10.43;;;11.70;99.90;;;;;;5027351;28;20386;-73
2022/12/26 03:13:10;;;;;;;19.38;12.13;;;11.70;99.90;;;;;;5027749;28;20182;-72
2022/12/26 03:18:47;;;;;;;17.98;11.23;;;11.50;99.90;;;;;;5027323;28;20139;-72
2022/12/26 03:21:15;;;;;;;14.95;9.90;;;11.50;99.90;;;;;;5025914;28;20069;-73
2022/12/26 03:23:45;;;;;;;14.15;10.20;;;11.40;99.90;;;;;;5029112;28;20029;-72
2022/12/26 03:26:39;;;;;;;14.25;9.85;;;11.40;99.90;;;;;;5023286;28;20116;-72
2022/12/26 03:31:55;;;;;;;11.07;8.13;;;11.40;99.90;;;;;;5029922;28;20112;-72
2022/12/26 03:34:21;;;;;;;12.63;9.30;;;11.40;99.90;;;;;;5026467;28;20028;-73
2022/12/26 03:37:25;;;;;;;11.90;7.47;;;11.40;99.90;;;;;;5032883;28;20541;-73
2022/12/26 04:44:12;;;;;;;24.08;14.00;;;11.20;99.90;;;;;;5023083;28;20061;-73
2022/12/26 04:46:41;;;;;;;22.65;13.30;;;11.20;99.90;;;;;;5026207;28;20116;-72
2022/12/26 04:51:58;;;;;;;22.33;12.55;;;11.20;99.90;;;;;;5023688;28;20561;-72
2022/12/26 04:54:25;;;;;;;24.77;12.68;;;11.10;99.90;;;;;;5021243;28;20415;-73
2022/12/26 04:56:51;;;;;;;22.88;11.60;;;11.10;99.90;;;;;;5021912;28;20025;-73
2022/12/26 04:59:17;;;;;;;19.08;11.55;;;11.20;99.90;;;;;;5029689;28;20029;-72
2022/12/26 05:10:05;;;;;;;15.07;9.00;;;11.10;99.90;;;;;;5029754;28;20123;-72
2022/12/26 05:12:31;;;;;;;13.68;8.70;;;11.20;99.90;;;;;;5027436;28;20048;-72
2022/12/26 05:14:56;;;;;;;13.02;8.15;;;11.10;99.90;;;;;;5017022;28;20475;-72
2022/12/26 05:28:42;;;;;;;18.02;9.95;;;11.10;99.90;;;;;;5026887;28;20033;-72
2022/12/26 05:31:10;;;;;;;13.07;8.48;;;11.10;99.90;;;;;;5024734;28;20039;-73
2022/12/26 05:36:21;;;;;;;20.40;11.23;;;11.20;99.90;;;;;;5021948;28;20036;-73
2022/12/26 05:38:47;;;;;;;15.63;10.23;;;11.10;99.90;;;;;;5023351;28;20136;-72
2022/12/26 05:41:14;;;;;;;18.88;11.15;;;11.10;99.90;;;;;;5025512;28;20021;-72
2022/12/26 05:43:40;;;;;;;19.75;10.48;;;11.20;99.90;;;;;;5031698;28;20473;-73
2022/12/26 05:46:05;;;;;;;21.38;11.93;;;11.20;99.90;;;;;;5023524;28;20092;-73
2022/12/26 05:48:31;;;;;;;13.45;8.73;;;11.20;99.90;;;;;;5020981;28;20467;-73
2022/12/26 05:50:58;;;;;;;18.15;9.13;;;11.20;99.90;;;;;;5021758;28;20033;-73
2022/12/26 05:53:24;;;;;;;14.20;7.82;;;11.10;99.90;;;;;;5022595;28;20018;-73
2022/12/26 05:55:50;;;;;;;14.68;7.75;;;11.10;99.90;;;;;;5025772;28;20543;-72
2022/12/26 05:58:15;;;;;;;9.60;6.38;;;11.10;99.90;;;;;;5024327;28;20048;-72
2022/12/26 06:00:41;;;;;;;12.18;6.30;;;11.10;99.90;;;;;;5024494;28;20465;-72
2022/12/26 06:03:06;;;;;;;11.18;7.07;;;11.10;99.90;;;;;;5020757;28;20029;-72
2022/12/26 06:05:32;;;;;;;8.95;5.00;;;11.10;99.90;;;;;;5023337;28;20052;-72
2022/12/26 06:07:58;;;;;;;5.47;4.85;;;11.00;99.90;;;;;;5022409;28;20056;-72
2022/12/26 06:10:25;;;;;;;9.30;5.93;;;11.00;99.90;;;;;;5032925;28;20512;-72
2022/12/26 06:12:52;;;;;;;7.28;5.03;;;11.00;99.90;;;;;;5024313;28;20025;-72
2022/12/26 06:15:17;;;;;;;9.20;6.05;;;11.00;99.90;;;;;;5022717;28;20034;-72
2022/12/26 06:17:43;;;;;;;7.35;5.55;;;10.90;99.90;;;;;;5028273;28;20084;-72
2022/12/26 06:20:09;;;;;;;9.93;5.97;;;10.90;99.90;;;;;;5028067;28;20055;-72
2022/12/26 06:22:35;;;;;;;5.95;5.35;;;11.00;99.90;;;;;;5023442;28;20065;-72
2022/12/26 06:25:01;;;;;;;6.97;5.22;;;10.90;99.90;;;;;;5024516;28;20439;-72
2022/12/26 06:27:26;;;;;;;7.38;4.90;;;10.90;99.90;;;;;;5031361;28;20033;-72
2022/12/26 06:29:52;;;;;;;8.00;5.82;;;10.90;99.90;;;;;;5031766;28;20013;-72
2022/12/26 06:32:18;;;;;;;6.65;4.93;;;10.90;99.90;;;;;;5033372;28;20534;-72
2022/12/26 06:34:43;;;;;;;8.02;5.70;;;10.90;99.90;;;;;;5024869;28;20029;-72
2022/12/26 06:37:09;;;;;;;10.80;6.10;;;10.90;99.90;;;;;;5024704;28;20033;-72
2022/12/26 06:39:34;;;;;;;9.05;5.75;;;10.90;99.90;;;;;;5022631;28;20013;-72
2022/12/26 06:42:00;;;;;;;9.32;6.00;;;10.90;99.90;;;;;;5027494;28;20037;-72
2022/12/26 06:44:26;;;;;;;9.25;6.18;;;10.90;99.90;;;;;;5022912;28;20033;-72
2022/12/26 06:46:51;;;;;;;6.65;5.40;;;10.90;99.90;;;;;;5026670;28;20029;-72
2022/12/26 06:49:17;;;;;;;8.75;5.65;;;10.90;99.90;;;;;;5027549;28;20489;-72
2022/12/26 06:51:43;;;;;;;9.00;5.80;;;10.80;99.90;;;;;;5025320;28;20037;-72
2022/12/26 06:54:10;;;;;;;8.88;6.03;;;10.90;99.90;;;;;;5027486;28;20029;-72
2022/12/26 06:56:35;;;;;;;8.38;5.68;;;10.90;99.90;;;;;;5026406;28;20059;-72
2022/12/26 06:59:03;;;;;;;8.23;5.38;;;11.00;99.90;;;;;;5023526;28;20406;-72
2022/12/26 07:01:31;;;;;;;8.38;5.90;;;10.90;99.90;;;;;;5028473;28;20120;-72
2022/12/26 07:03:57;;;;;;;8.93;5.40;;;11.00;99.90;;;;;;5028249;28;20061;-72
2022/12/26 07:06:23;;;;;;;9.40;5.13;;;10.90;99.90;;;;;;5024903;28;20489;-72
2022/12/26 07:08:49;;;;;;;7.72;5.32;;;11.00;99.90;;;;;;5023520;28;20541;-72
2022/12/26 07:11:17;;;;;;;9.15;4.90;;;11.00;99.90;;;;;;5023172;28;20049;-72
2022/12/26 07:13:43;;;;;;;8.23;4.70;;;10.90;99.90;;;;;;5022708;28;20101;-72
2022/12/26 07:16:10;;;;;;;7.13;4.75;;;11.00;99.90;;;;;;5024243;28;20112;-72
2022/12/26 07:18:36;;;;;;;7.40;4.90;;;11.00;99.90;;;;;;5028327;28;20032;-72
2022/12/26 07:21:06;;;;;;;6.15;4.13;;;11.00;99.90;;;;;;5026245;28;20021;-72
2022/12/26 07:23:32;;;;;;;8.05;4.50;;;11.10;99.90;;;;;;5028270;28;20037;-72
2022/12/26 07:25:57;;;;;;;7.72;4.82;;;11.00;99.90;;;;;;5024497;28;20022;-72
2022/12/26 07:28:23;;;;;;;4.72;4.32;;;11.00;99.90;;;;;;5025317;28;20052;-72
2022/12/26 07:30:49;;;;;;;8.70;4.57;;;10.90;99.90;;;;;;5025752;28;20044;-71
2022/12/26 07:33:16;;;;;;;4.07;3.60;;;10.90;99.90;;;;;;5029122;28;20021;-72
2022/12/26 07:35:42;;;;;;;7.78;4.78;;;10.90;99.90;;;;;;5031506;28;20021;-71
2022/12/26 07:38:08;;;;;;;8.57;4.43;;;10.90;99.90;;;;;;5016985;28;20352;-71
2022/12/26 07:40:34;;;;;;;6.00;4.15;;;10.90;99.90;;;;;;5024512;28;20022;-71
2022/12/26 07:42:59;;;;;;;5.55;4.13;;;10.90;99.90;;;;;;5027106;28;20485;-71
2022/12/26 07:45:25;;;;;;;7.38;4.35;;;11.00;99.90;;;;;;5024680;28;20234;-71
2022/12/26 07:47:54;;;;;;;6.63;3.92;;;10.90;99.90;;;;;;5023609;28;20069;-71
2022/12/26 07:50:21;;;;;;;14.98;3.97;;;10.90;99.90;;;;;;5023646;28;20041;-72
2022/12/26 07:52:47;;;;;;;8.13;3.55;;;10.90;99.90;;;;;;5030002;28;20084;-71
2022/12/26 07:55:12;;;;;;;7.65;3.42;;;10.90;99.90;;;;;;5024632;28;20501;-71
2022/12/26 07:57:38;;;;;;;5.13;3.00;;;10.90;99.90;;;;;;5031164;28;20029;-71
2022/12/26 08:00:05;;;;;;;8.38;3.38;;;10.90;99.90;;;;;;5023422;28;20034;-71
2022/12/26 08:02:30;;;;;;;6.75;3.45;;;10.90;99.90;;;;;;5024011;28;20029;-71
2022/12/26 08:04:56;;;;;;;5.97;2.97;;;10.90;99.90;;;;;;5018964;28;20033;-71
2022/12/26 08:07:22;;;;;;;10.35;3.58;;;10.90;99.90;;;;;;5028540;28;20105;-71
2022/12/26 08:09:47;;;;;;;6.68;3.33;;;10.90;99.90;;;;;;5023559;28;20038;-71
2022/12/26 08:12:13;;;;;;;6.68;3.72;;;10.90;99.90;;;;;;5028806;28;20033;-72
2022/12/26 08:14:39;;;;;;;7.82;3.28;;;10.90;99.90;;;;;;5026123;28;20074;-72
2022/12/26 08:17:05;;;;;;;7.13;3.15;;;10.90;99.90;;;;;;5023888;28;20033;-71
2022/12/26 08:19:31;;;;;;;8.20;3.28;;;10.90;99.90;;;;;;5023613;28;20025;-71
2022/12/26 08:21:56;;;;;;;4.82;2.55;;;10.80;99.90;;;;;;5022727;28;20026;-71
2022/12/26 08:24:22;;;;;;;8.05;3.00;;;10.80;99.90;;;;;;5027049;28;20462;-71
2022/12/26 08:26:48;;;;;;;5.85;3.08;;;10.80;99.90;;;;;;5021343;28;20038;-71
2022/12/26 08:29:13;;;;;;;4.72;2.47;;;10.90;99.90;;;;;;5030184;28;20033;-69
2022/12/26 08:31:39;;;;;;;8.73;2.70;;;10.80;99.90;;;;;;5024845;28;20096;-69
2022/12/26 08:34:05;;;;;;;5.10;2.50;;;10.80;99.90;;;;;;5020256;28;20022;-69
2022/12/26 08:36:30;;;;;;;4.95;2.78;;;10.70;99.90;;;;;;5020894;28;20030;-71
2022/12/26 08:38:57;;;;;;;7.93;2.88;;;10.80;99.90;;;;;;5021916;28;20196;-69
2022/12/26 08:41:23;;;;;;;4.63;2.00;;;10.80;99.90;;;;;;5051841;28;20037;-70
2022/12/26 08:43:49;;;;;;;6.63;2.40;;;10.80;99.90;;;;;;5022176;28;20025;-70
2022/12/26 08:46:16;;;;;;;5.20;2.38;;;10.80;99.90;;;;;;5017368;28;20030;-69
2022/12/26 08:48:43;;;;;;;8.00;2.20;;;10.80;99.90;;;;;;5029282;28;20043;-69
2022/12/26 08:51:12;;;;;;;3.88;2.20;;;10.80;99.90;;;;;;5028002;28;20525;-69
2022/12/26 08:53:39;;;;;;;7.60;2.25;;;10.80;99.90;;;;;;5025186;28;20526;-69
2022/12/26 08:56:06;;;;;;;8.13;2.17;;;10.80;99.90;;;;;;5027756;28;20028;-69
2022/12/26 08:58:33;;;;;;;6.28;1.85;;;10.80;99.90;;;;;;5021705;28;20053;-69
2022/12/26 09:01:17;;;;;;;6.68;1.98;;;10.80;99.90;;;;;;5026589;28;20091;-69
2022/12/26 09:03:43;;;;;;;5.03;2.00;;;10.90;99.90;;;;;;5028370;28;20029;-69
2022/12/26 09:06:10;;;;;;;3.50;1.40;;;10.90;99.90;;;;;;5023159;28;20033;-69
2022/12/26 09:08:37;;;;;;;6.00;1.70;;;10.90;99.90;;;;;;5024952;28;20124;-69
2022/12/26 09:11:04;;;;;;;3.17;1.67;;;10.90;99.90;;;;;;5053794;28;20025;-69
2022/12/26 09:13:31;;;;;;;8.27;1.92;;;10.90;99.90;;;;;;5021016;28;20116;-69
2022/12/26 09:16:07;;;;;;;6.15;1.70;;;11.00;99.90;;;;;;5019853;28;20032;-69
2022/12/26 09:18:34;;;;;;;2.75;1.10;;;11.00;99.90;;;;;;5025106;28;20031;-68
2022/12/26 09:21:01;;;;;;;3.97;1.20;;;11.00;99.90;;;;;;5021655;28;20092;-70
2022/12/26 09:23:28;;;;;;;5.97;2.15;;;11.10;99.90;;;;;;5025948;28;20542;-68
2022/12/26 09:25:54;;;;;;;5.78;1.23;;;11.10;99.90;;;;;;5026205;28;20117;-69
2022/12/26 09:28:19;;;;;;;8.80;2.53;;;11.20;99.90;;;;;;5021998;28;20105;-69
2022/12/26 09:30:45;;;;;;;6.07;1.98;;;11.10;99.90;;;;;;5021403;28;20389;-69
2022/12/26 09:33:10;;;;;;;5.40;1.73;;;11.30;99.90;;;;;;5022756;28;20490;-69
2022/12/26 09:35:40;;;;;;;7.55;1.70;;;11.30;99.90;;;;;;5021138;28;20037;-71
2022/12/26 09:38:05;;;;;;;6.50;1.67;;;11.40;99.90;;;;;;5025608;28;20026;-68
2022/12/26 09:41:07;;;;;;;3.15;1.33;;;11.30;99.90;;;;;;5025093;28;20109;-69
2022/12/26 09:43:58;;;;;;;9.57;1.80;;;11.30;99.90;;;;;;5027531;28;20092;-68
2022/12/26 09:46:33;;;;;;;7.43;1.40;;;11.30;99.90;;;;;;5052417;28;20058;-68
2022/12/26 09:49:12;;;;;;;3.95;1.08;;;11.30;99.90;;;;;;5032902;28;20056;-69
2022/12/26 09:51:42;;;;;;;6.88;1.75;;;11.40;99.90;;;;;;5033968;28;20052;-68
2022/12/26 09:54:15;;;;;;;7.57;1.75;;;11.40;99.90;;;;;;5031593;28;20446;-69
2022/12/26 09:56:44;;;;;;;11.43;1.40;;;11.40;99.90;;;;;;5034185;28;20025;-68
2022/12/26 09:59:20;;;;;;;5.20;1.42;;;11.40;99.90;;;;;;5033326;28;20030;-68
2022/12/26 10:01:47;;;;;;;5.97;1.60;;;11.30;99.90;;;;;;5025163;28;20025;-69
2022/12/26 10:04:39;;;;;;;5.97;1.83;;;11.40;99.90;;;;;;5033354;28;20034;-69
2022/12/26 10:07:22;;;;;;;8.20;1.83;;;11.40;99.90;;;;;;5024938;28;20060;-69
2022/12/26 10:10:12;;;;;;;3.17;1.90;;;11.50;99.90;;;;;;5028812;28;20028;-68
2022/12/26 10:13:01;;;;;;;8.18;1.58;;;11.40;99.90;;;;;;5029966;28;20359;-68
2022/12/26 10:15:53;;;;;;;9.95;1.48;;;11.40;99.90;;;;;;5032396;28;20033;-69
2022/12/26 10:19:10;;;;;;;7.65;1.98;;;11.50;99.90;;;;;;5024550;28;20037;-68
2022/12/26 10:22:18;;;;;;;10.10;3.08;;;11.40;99.90;;;;;;5024064;28;20052;-68
2022/12/26 10:24:45;;;;;;;8.80;1.70;;;11.40;99.90;;;;;;5026664;28;20146;-68
2022/12/26 10:27:14;;;;;;;7.53;2.50;;;11.40;99.90;;;;;;5032205;28;20063;-69
2022/12/26 10:29:46;;;;;;;6.70;1.80;;;11.40;99.90;;;;;;5019883;28;20022;-69
2022/12/26 10:32:19;;;;;;;6.45;1.75;;;11.30;99.90;;;;;;5033348;28;20482;-68
2022/12/26 10:34:48;;;;;;;6.85;1.80;;;11.40;99.90;;;;;;5023436;28;20026;-69
2022/12/26 10:37:23;;;;;;;5.28;1.77;;;11.40;99.90;;;;;;5022061;28;20109;-68
2022/12/26 10:40:04;;;;;;;2.72;1.30;;;11.40;99.90;;;;;;5022956;28;20359;-69
2022/12/26 10:42:44;;;;;;;6.85;1.80;;;11.40;99.90;;;;;;5030233;28;20108;-68
2022/12/26 10:45:35;;;;;;;7.10;2.40;;;11.50;99.90;;;;;;5020354;28;20034;-68
2022/12/26 10:48:01;;;;;;;5.35;1.85;;;11.50;99.90;;;;;;5033031;28;20390;-69
2022/12/26 10:50:30;;;;;;;8.07;1.50;;;11.50;99.90;;;;;;5033223;28;20036;-68
2022/12/26 10:52:58;;;;;;;3.78;1.55;;;11.50;99.90;;;;;;5029392;28;20025;-69
2022/12/26 10:55:34;;;;;;;2.92;1.77;;;11.50;99.90;;;;;;5026609;28;20520;-69
2022/12/26 10:58:39;;;;;;;6.95;1.75;;;11.50;99.90;;;;;;5027211;28;20120;-69
2022/12/26 11:01:38;;;;;;;6.88;1.63;;;11.50;99.90;;;;;;5043577;28;20431;-69
2022/12/26 11:04:17;;;;;;;7.03;2.05;;;11.60;99.90;;;;;;5007393;28;20044;-70
2022/12/26 11:06:44;;;;;;;6.55;1.40;;;11.60;99.90;;;;;;5030171;28;20025;-69
2022/12/26 11:09:30;;;;;;;6.88;2.00;;;11.60;99.90;;;;;;5033514;28;20021;-68
2022/12/26 11:11:56;;;;;;;7.40;2.80;;;11.60;99.90;;;;;;5024612;28;20030;-68
2022/12/26 11:14:34;;;;;;;6.00;2.72;;;11.60;99.90;;;;;;5026318;28;20029;-69
2022/12/26 11:17:04;;;;;;;3.38;1.80;;;11.50;99.90;;;;;;5026391;28;20084;-68
2022/12/26 11:19:41;;;;;;;3.28;1.67;;;11.50;99.90;;;;;;5031917;28;20022;-69
2022/12/26 11:22:33;;;;;;;7.05;2.70;;;11.50;99.90;;;;;;5028235;28;20026;-69
2022/12/26 11:25:24;;;;;;;4.53;1.90;;;11.70;99.90;;;;;;5024411;28;20038;-68
2022/12/26 11:27:57;;;;;;;3.45;1.20;;;11.60;99.90;;;;;;5023192;28;20161;-69
2022/12/26 11:30:32;;;;;;;7.82;1.30;;;11.60;99.90;;;;;;5023879;28;20478;-72
2022/12/26 11:33:15;;;;;;;5.65;0.80;;;11.50;99.90;;;;;;5034459;28;20034;-69
2022/12/26 11:35:48;;;;;;;8.57;1.55;;;11.50;99.90;;;;;;5025952;28;20079;-69
2022/12/26 11:38:33;;;;;;;6.03;1.63;;;11.40;99.90;;;;;;5023381;28;20091;-69
2022/12/26 11:43:57;;;;;;;7.25;1.48;;;11.30;99.90;;;;;;5028186;28;20493;-69
2022/12/26 11:46:36;;;;;;;6.65;1.30;;;11.30;99.90;;;;;;5020997;28;20029;-70
2022/12/26 11:49:02;;;;;;;5.40;1.70;;;11.40;99.90;;;;;;5029539;28;20025;-69
2022/12/26 11:51:40;;;;;;;5.63;1.65;;;11.40;99.90;;;;;;5057368;28;20033;-69
2022/12/26 11:54:20;;;;;;;7.80;1.50;;;11.50;99.90;;;;;;5024635;28;20833;-69
2022/12/26 11:56:47;;;;;;;6.50;1.38;;;11.60;99.90;;;;;;5023431;28;20025;-70
2022/12/26 11:59:22;;;;;;;13.57;1.48;;;11.70;99.90;;;;;;5026172;28;20018;-68
2022/12/26 12:02:09;;;;;;;9.65;2.13;;;11.40;99.90;;;;;;4999086;28;20033;-69
2022/12/26 12:04:34;;;;;;;7.15;1.98;;;11.40;99.90;;;;;;5022849;28;20140;-70
2022/12/26 12:07:17;;;;;;;5.78;1.83;;;11.30;99.90;;;;;;5022377;28;20171;-70
2022/12/26 12:09:58;;;;;;;7.70;1.80;;;11.30;99.90;;;;;;5022638;28;20029;-70
2022/12/26 12:12:41;;;;;;;10.55;2.25;;;11.30;99.90;;;;;;5025946;28;20091;-69
2022/12/26 12:15:14;;;;;;;9.73;2.50;;;11.30;99.90;;;;;;5020705;28;20044;-70
2022/12/26 12:18:01;;;;;;;7.03;1.65;;;11.30;99.90;;;;;;5025201;28;20030;-70
2022/12/26 12:20:55;;;;;;;11.20;2.00;;;11.20;99.90;;;;;;5025851;28;20029;-69
2022/12/26 12:23:20;;;;;;;12.40;2.53;;;11.10;99.90;;;;;;5020671;28;20378;-70
2022/12/26 12:26:04;;;;;;;10.05;1.83;;;11.10;99.90;;;;;;5020312;28;20038;-69
2022/12/26 12:28:42;;;;;;;11.57;2.63;;;11.00;99.90;;;;;;5025169;28;20470;-69
2022/12/26 12:31:17;;;;;;;16.45;2.60;;;10.90;99.90;;;;;;5024154;28;20067;-70
2022/12/26 12:34:00;;;;;;;10.07;2.38;;;11.00;99.90;;;;;;5026374;28;20021;-70
2022/12/26 12:36:49;;;;;;;11.93;2.53;;;11.00;99.90;;;;;;5019714;28;20576;-70
2022/12/26 12:39:19;;;;;;;10.77;2.22;;;10.90;99.90;;;;;;5025243;28;20048;-70
2022/12/26 12:42:07;;;;;;;10.88;2.33;;;10.90;99.90;;;;;;5023415;28;20026;-70
2022/12/26 12:45:08;;;;;;;10.38;2.50;;;10.90;99.90;;;;;;5026279;28;20022;-70
2022/12/26 12:48:09;;;;;;;9.68;2.30;;;10.80;99.90;;;;;;5024906;28;20043;-70
2022/12/26 12:50:57;;;;;;;11.60;2.80;;;10.90;99.90;;;;;;5024497;28;20056;-70
2022/12/26 12:53:54;;;;;;;9.85;2.72;;;10.90;99.90;;;;;;5025984;28;20021;-70
2022/12/26 12:56:31;;;;;;;10.27;2.92;;;10.90;99.90;;;;;;5019959;28;20398;-70
2022/12/26 12:59:00;;;;;;;9.82;2.63;;;10.80;99.90;;;;;;5035152;28;20040;-70
2022/12/26 13:01:33;;;;;;;12.90;2.80;;;10.80;99.90;;;;;;5022084;28;20109;-69
2022/12/26 13:04:10;;;;;;;8.43;2.22;;;10.90;99.90;;;;;;5023555;28;20029;-70
2022/12/26 13:06:44;;;;;;;12.35;2.65;;;10.70;99.90;;;;;;5020619;28;20022;-70
2022/12/26 13:09:22;;;;;;;7.75;1.90;;;10.80;99.90;;;;;;5023742;28;20493;-70
2022/12/26 13:11:56;;;;;;;7.43;1.67;;;10.70;99.90;;;;;;5023379;28;20038;-69
2022/12/26 13:14:32;;;;;;;5.20;1.70;;;10.60;99.90;;;;;;5024972;28;20112;-70
2022/12/26 13:17:23;;;;;;;9.38;2.30;;;10.60;99.90;;;;;;5028905;28;20037;-69
2022/12/26 13:20:00;;;;;;;9.25;2.15;;;10.60;99.90;;;;;;5029132;28;20068;-69
2022/12/26 13:25:52;;;;;;;6.60;1.73;;;10.60;99.90;;;;;;5025340;28;20075;-69
2022/12/26 13:28:26;;;;;;;5.65;1.60;;;10.60;99.90;;;;;;5028810;28;20389;-69
2022/12/26 13:30:54;;;;;;;6.90;1.85;;;10.50;99.90;;;;;;5026229;28;20041;-69
2022/12/26 13:33:20;;;;;;;10.40;2.00;;;10.50;99.90;;;;;;5029472;28;20067;-69
2022/12/26 13:35:59;;;;;;;4.80;2.10;;;10.50;99.90;;;;;;5029312;28;20025;-70
2022/12/26 13:38:45;;;;;;;7.28;2.33;;;10.50;99.90;;;;;;5024874;28;20183;-69
2022/12/26 13:44:22;;;;;;;6.95;1.85;;;10.40;99.90;;;;;;5028848;28;20111;-69
2022/12/26 13:46:48;;;;;;;7.97;2.33;;;10.40;99.90;;;;;;5029252;28;20041;-68
2022/12/26 13:49:28;;;;;;;9.30;2.10;;;10.40;99.90;;;;;;5029792;28;20388;-68
2022/12/26 13:51:57;;;;;;;8.85;1.48;;;10.30;99.90;;;;;;5025089;28;20103;-69
2022/12/26 13:54:25;;;;;;;8.63;1.88;;;10.20;99.90;;;;;;5027339;28;20017;-68
2022/12/26 13:57:11;;;;;;;7.00;1.35;;;10.20;99.90;;;;;;5023267;28;20511;-69
2022/12/26 14:00:08;;;;;;;6.72;1.40;;;10.20;99.90;;;;;;5029576;28;20543;-69
2022/12/26 14:02:43;;;;;;;13.77;1.88;;;10.20;99.90;;;;;;5024345;28;20041;-68
2022/12/26 14:05:42;;;;;;;5.80;1.60;;;10.20;99.90;;;;;;5027375;28;20117;-69
2022/12/26 14:08:28;;;;;;;6.45;1.33;;;10.00;99.90;;;;;;5024678;28;20315;-69
2022/12/26 14:10:59;;;;;;;4.57;1.10;;;10.10;99.90;;;;;;5027713;28;20048;-70
2022/12/26 14:13:37;;;;;;;5.97;1.48;;;10.10;99.90;;;;;;5022830;28;20040;-69
2022/12/26 14:16:30;;;;;;;5.93;1.60;;;10.20;99.90;;;;;;5025585;28;20041;-69
2022/12/26 14:19:30;;;;;;;7.85;1.50;;;10.10;99.90;;;;;;5023264;28;20029;-69
2022/12/26 14:22:18;;;;;;;7.32;1.55;;;10.10;99.90;;;;;;5001696;28;20087;-69
2022/12/26 14:25:08;;;;;;;7.30;1.30;;;10.20;99.90;;;;;;5024941;28;20596;-69
2022/12/26 14:27:51;;;;;;;7.60;1.60;;;10.10;99.90;;;;;;5022947;28;20030;-71
2022/12/26 14:30:19;;;;;;;7.68;1.70;;;10.00;99.90;;;;;;5028456;28;20025;-69
2022/12/26 14:33:16;;;;;;;8.98;1.50;;;9.90;99.90;;;;;;5026128;28;20029;-70
2022/12/26 14:36:00;;;;;;;5.57;1.77;;;9.80;99.90;;;;;;5028538;28;20029;-70
2022/12/26 14:39:02;;;;;;;10.57;1.52;;;9.90;99.90;;;;;;5029303;28;20036;-71
2022/12/26 14:44:32;;;;;;;4.95;1.23;;;9.90;99.90;;;;;;5027256;28;20035;-70
2022/12/26 14:47:00;;;;;;;3.17;1.60;;;9.80;99.90;;;;;;5028220;28;20029;-70
2022/12/26 14:49:29;;;;;;;8.57;1.95;;;9.70;99.90;;;;;;5028577;28;20021;-69
2022/12/26 14:52:14;;;;;;;5.68;1.20;;;9.70;99.90;;;;;;5030333;28;20041;-70
2022/12/26 14:54:45;;;;;;;5.20;1.60;;;9.60;99.90;;;;;;5027184;28;20037;-69
2022/12/26 14:57:42;;;;;;;8.48;1.45;;;9.60;99.90;;;;;;5028714;28;20025;-70
2022/12/26 15:00:20;;;;;;;3.47;1.23;;;9.50;99.90;;;;;;5026770;28;20045;-71
2022/12/26 15:02:56;;;;;;;7.78;1.20;;;9.40;99.90;;;;;;5022928;28;20032;-69
2022/12/26 15:05:26;;;;;;;5.60;1.25;;;9.40;99.90;;;;;;5027078;28;20037;-69
2022/12/26 15:08:14;;;;;;;6.93;1.23;;;9.30;99.90;;;;;;5024133;28;20059;-69
2022/12/26 15:11:04;;;;;;;6.18;1.30;;;9.20;99.90;;;;;;5027680;28;20037;-70
2022/12/26 15:13:52;;;;;;;6.20;1.58;;;9.20;99.90;;;;;;5023468;28;20022;-70
2022/12/26 15:16:52;;;;;;;6.70;1.40;;;9.20;99.90;;;;;;5027068;28;20055;-70
2022/12/26 15:19:23;;;;;;;6.95;1.55;;;9.10;99.90;;;;;;5023025;28;20541;-70
2022/12/26 15:22:23;;;;;;;3.90;1.15;;;9.00;99.90;;;;;;5023794;28;20036;-69
2022/12/26 15:25:25;;;;;;;6.70;1.55;;;9.00;99.90;;;;;;5022686;28;20045;-70
2022/12/26 15:27:56;;;;;;;10.07;1.60;;;9.10;99.90;;;;;;5023892;28;20036;-70